sensor_id;sensor_type;location;lat;lon;timestamp;temperature;humidity
19878;DHT22;10101;52.204;9.910;2022-09-28T00:01:26;7.30;99.90
19878;DHT22;10101;52.204;9.910;2022-09-28T00:03:55;7.30;99.90
19878;DHT22;10101;52.204;9.910;2022-09-28T00:06:24;7.20;99.90
19878;DHT22;10101;52.204;9.910;2022-09-28T00:08:51;7.10;99.90
19878;DHT22;10101;52.204;9.910;2022-09-28T00:11:20;7.10;99.90
19878;DHT22;10101;52.204;9.910;2022-09-28T00:13:49;7.10;99.90
19878;DHT22;10101;52.204;9.910;2022-09-28T00:16:19;7.10;99.90
19878;DHT22;10101;52.204;9.910;2022-09-28T00:18:46;7.00;99.90
19878;DHT22;10101;52.204;9.910;2022-09-28T00:21:17;6.90;99.90
19878;DHT22;10101;52.204;9.910;2022-09-28T00:23:44;6.90;99.90
19878;DHT22;10101;52.204;9.910;2022-09-28T00:26:30;6.90;99.90
19878;DHT22;10101;52.204;9.910;2022-09-28T00:28:58;6.80;99.90
19878;DHT22;10101;52.204;9.910;2022-09-28T00:31:26;6.70;99.90
19878;DHT22;10101;52.204;9.910;2022-09-28T00:33:53;6.60;99.90
19878;DHT22;10101;52.204;9.910;2022-09-28T00:36:23;6.60;99.90
19878;DHT22;10101;52.204;9.910;2022-09-28T00:38:51;6.60;99.90
19878;DHT22;10101;52.204;9.910;2022-09-28T00:41:18;6.60;99.90
19878;DHT22;10101;52.204;9.910;2022-09-28T00:43:44;6.50;99.90
19878;DHT22;10101;52.204;9.910;2022-09-28T00:46:15;6.60;99.90
19878;DHT22;10101;52.204;9.910;2022-09-28T00:48:49;6.60;99.90
19878;DHT22;10101;52.204;9.910;2022-09-28T00:51:18;6.60;99.90
19878;DHT22;10101;52.204;9.910;2022-09-28T00:53:47;6.60;99.90
19878;DHT22;10101;52.204;9.910;2022-09-28T00:56:16;6.50;99.90
19878;DHT22;10101;52.204;9.910;2022-09-28T00:58:46;6.40;99.90
19878;DHT22;10101;52.204;9.910;2022-09-28T01:01:13;6.40;99.90
19878;DHT22;10101;52.204;9.910;2022-09-28T01:03:40;6.40;99.90
19878;DHT22;10101;52.204;9.910;2022-09-28T01:06:12;6.50;99.90
19878;DHT22;10101;52.204;9.910;2022-09-28T01:08:41;6.60;99.90
19878;DHT22;10101;52.204;9.910;2022-09-28T01:11:11;6.60;99.90
19878;DHT22;10101;52.204;9.910;2022-09-28T01:13:39;6.60;99.90
19878;DHT22;10101;52.204;9.910;2022-09-28T01:16:10;6.60;99.90
19878;DHT22;10101;52.204;9.910;2022-09-28T01:18:46;6.70;99.90
19878;DHT22;10101;52.204;9.910;2022-09-28T01:21:22;6.70;99.90
19878;DHT22;10101;52.204;9.910;2022-09-28T01:24:14;6.70;99.90
19878;DHT22;10101;52.204;9.910;2022-09-28T01:26:59;6.70;99.90
19878;DHT22;10101;52.204;9.910;2022-09-28T01:29:35;6.90;99.90
19878;DHT22;10101;52.204;9.910;2022-09-28T01:32:11;6.90;99.90
19878;DHT22;10101;52.204;9.910;2022-09-28T01:34:44;6.90;99.90
19878;DHT22;10101;52.204;9.910;2022-09-28T01:37:15;6.90;99.90
19878;DHT22;10101;52.204;9.910;2022-09-28T01:39:46;7.00;99.90
19878;DHT22;10101;52.204;9.910;2022-09-28T01:42:19;7.00;99.90
19878;DHT22;10101;52.204;9.910;2022-09-28T01:44:48;7.10;99.90
19878;DHT22;10101;52.204;9.910;2022-09-28T01:47:19;7.10;99.90
19878;DHT22;10101;52.204;9.910;2022-09-28T01:49:49;7.10;99.90
19878;DHT22;10101;52.204;9.910;2022-09-28T01:52:22;7.10;99.90
19878;DHT22;10101;52.204;9.910;2022-09-28T01:54:53;7.10;99.90
19878;DHT22;10101;52.204;9.910;2022-09-28T01:57:23;7.10;99.90
19878;DHT22;10101;52.204;9.910;2022-09-28T01:59:56;7.10;99.90
19878;DHT22;10101;52.204;9.910;2022-09-28T02:02:27;7.20;99.90
19878;DHT22;10101;52.204;9.910;2022-09-28T02:05:00;7.10;99.90
19878;DHT22;10101;52.204;9.910;2022-09-28T02:07:33;7.20;99.90
19878;DHT22;10101;52.204;9.910;2022-09-28T02:10:07;7.20;99.90
19878;DHT22;10101;52.204;9.910;2022-09-28T02:12:40;7.20;99.90
19878;DHT22;10101;52.204;9.910;2022-09-28T02:15:11;7.30;99.90
19878;DHT22;10101;52.204;9.910;2022-09-28T02:17:40;7.30;99.90
19878;DHT22;10101;52.204;9.910;2022-09-28T02:20:07;7.30;99.90
19878;DHT22;10101;52.204;9.910;2022-09-28T02:22:38;7.30;99.90
19878;DHT22;10101;52.204;9.910;2022-09-28T02:25:10;7.30;99.90
19878;DHT22;10101;52.204;9.910;2022-09-28T02:27:42;7.30;99.90
19878;DHT22;10101;52.204;9.910;2022-09-28T02:30:11;7.30;99.90
19878;DHT22;10101;52.204;9.910;2022-09-28T02:32:41;7.30;99.90
19878;DHT22;10101;52.204;9.910;2022-09-28T02:35:13;7.30;99.90
19878;DHT22;10101;52.204;9.910;2022-09-28T02:37:41;7.20;99.90
19878;DHT22;10101;52.204;9.910;2022-09-28T02:40:15;7.20;99.90
19878;DHT22;10101;52.204;9.910;2022-09-28T02:42:51;7.20;99.90
19878;DHT22;10101;52.204;9.910;2022-09-28T02:45:28;7.20;99.90
19878;DHT22;10101;52.204;9.910;2022-09-28T02:48:05;7.30;99.90
19878;DHT22;10101;52.204;9.910;2022-09-28T02:50:40;7.30;99.90
19878;DHT22;10101;52.204;9.910;2022-09-28T02:53:35;7.40;99.90
19878;DHT22;10101;52.204;9.910;2022-09-28T02:56:23;7.40;99.90
19878;DHT22;10101;52.204;9.910;2022-09-28T02:59:02;7.40;99.90
19878;DHT22;10101;52.204;9.910;2022-09-28T03:01:35;7.40;99.90
19878;DHT22;10101;52.204;9.910;2022-09-28T03:04:14;7.40;99.90
19878;DHT22;10101;52.204;9.910;2022-09-28T03:06:46;7.50;99.90
19878;DHT22;10101;52.204;9.910;2022-09-28T03:09:18;7.50;99.90
19878;DHT22;10101;52.204;9.910;2022-09-28T03:11:50;7.50;99.90
19878;DHT22;10101;52.204;9.910;2022-09-28T03:14:18;7.50;99.90
19878;DHT22;10101;52.204;9.910;2022-09-28T03:16:45;7.50;99.90
19878;DHT22;10101;52.204;9.910;2022-09-28T03:19:13;7.50;99.90
19878;DHT22;10101;52.204;9.910;2022-09-28T03:21:41;7.60;99.90
19878;DHT22;10101;52.204;9.910;2022-09-28T03:24:08;7.60;99.90
19878;DHT22;10101;52.204;9.910;2022-09-28T03:26:38;7.60;99.90
19878;DHT22;10101;52.204;9.910;2022-09-28T03:29:05;7.60;99.90
19878;DHT22;10101;52.204;9.910;2022-09-28T03:31:33;7.60;99.90
19878;DHT22;10101;52.204;9.910;2022-09-28T03:34:00;7.60;99.90
19878;DHT22;10101;52.204;9.910;2022-09-28T03:36:27;7.60;99.90
19878;DHT22;10101;52.204;9.910;2022-09-28T03:38:54;7.60;99.90
19878;DHT22;10101;52.204;9.910;2022-09-28T03:41:22;7.60;99.90
19878;DHT22;10101;52.204;9.910;2022-09-28T03:43:49;7.60;99.90
19878;DHT22;10101;52.204;9.910;2022-09-28T03:46:16;7.70;99.90
19878;DHT22;10101;52.204;9.910;2022-09-28T03:48:44;7.70;99.90
19878;DHT22;10101;52.204;9.910;2022-09-28T03:51:11;7.70;99.90
19878;DHT22;10101;52.204;9.910;2022-09-28T03:53:39;7.70;99.90
19878;DHT22;10101;52.204;9.910;2022-09-28T03:56:07;7.70;99.90
19878;DHT22;10101;52.204;9.910;2022-09-28T03:58:34;7.70;99.90
19878;DHT22;10101;52.204;9.910;2022-09-28T04:01:02;7.70;99.90
19878;DHT22;10101;52.204;9.910;2022-09-28T04:03:30;7.70;99.90
19878;DHT22;10101;52.204;9.910;2022-09-28T04:05:58;7.70;99.90
19878;DHT22;10101;52.204;9.910;2022-09-28T04:08:25;7.70;99.90
19878;DHT22;10101;52.204;9.910;2022-09-28T04:10:55;7.70;99.90
19878;DHT22;10101;52.204;9.910;2022-09-28T04:13:21;7.70;99.90
19878;DHT22;10101;52.204;9.910;2022-09-28T04:15:51;7.70;99.90
19878;DHT22;10101;52.204;9.910;2022-09-28T04:18:18;7.70;99.90
19878;DHT22;10101;52.204;9.910;2022-09-28T04:20:44;7.70;99.90
19878;DHT22;10101;52.204;9.910;2022-09-28T04:23:13;7.70;99.90
19878;DHT22;10101;52.204;9.910;2022-09-28T04:25:40;7.80;99.90
19878;DHT22;10101;52.204;9.910;2022-09-28T04:28:10;7.70;99.90
19878;DHT22;10101;52.204;9.910;2022-09-28T04:30:54;7.70;99.90
19878;DHT22;10101;52.204;9.910;2022-09-28T04:33:21;7.70;99.90
19878;DHT22;10101;52.204;9.910;2022-09-28T04:35:48;7.70;99.90
19878;DHT22;10101;52.204;9.910;2022-09-28T04:38:16;7.70;99.90
19878;DHT22;10101;52.204;9.910;2022-09-28T04:40:43;7.80;99.90
19878;DHT22;10101;52.204;9.910;2022-09-28T04:43:10;7.80;99.90
19878;DHT22;10101;52.204;9.910;2022-09-28T04:45:36;7.80;99.90
19878;DHT22;10101;52.204;9.910;2022-09-28T04:48:05;7.70;99.90
19878;DHT22;10101;52.204;9.910;2022-09-28T04:50:32;7.80;99.90
19878;DHT22;10101;52.204;9.910;2022-09-28T04:52:59;7.80;99.90
19878;DHT22;10101;52.204;9.910;2022-09-28T04:55:28;7.70;99.90
19878;DHT22;10101;52.204;9.910;2022-09-28T04:57:57;7.80;99.90
19878;DHT22;10101;52.204;9.910;2022-09-28T05:00:25;7.80;99.90
19878;DHT22;10101;52.204;9.910;2022-09-28T05:02:52;7.80;99.90
19878;DHT22;10101;52.204;9.910;2022-09-28T05:05:19;7.80;99.90
19878;DHT22;10101;52.204;9.910;2022-09-28T05:07:46;7.80;99.90
19878;DHT22;10101;52.204;9.910;2022-09-28T05:10:13;7.80;99.90
19878;DHT22;10101;52.204;9.910;2022-09-28T05:12:41;7.80;99.90
19878;DHT22;10101;52.204;9.910;2022-09-28T05:15:09;7.80;99.90
19878;DHT22;10101;52.204;9.910;2022-09-28T05:17:35;7.80;99.90
19878;DHT22;10101;52.204;9.910;2022-09-28T05:20:03;7.80;99.90
19878;DHT22;10101;52.204;9.910;2022-09-28T05:22:29;7.80;99.90
19878;DHT22;10101;52.204;9.910;2022-09-28T05:24:57;7.80;99.90
19878;DHT22;10101;52.204;9.910;2022-09-28T05:27:24;7.80;99.90
19878;DHT22;10101;52.204;9.910;2022-09-28T05:29:52;7.80;99.90
19878;DHT22;10101;52.204;9.910;2022-09-28T05:32:19;7.80;99.90
19878;DHT22;10101;52.204;9.910;2022-09-28T05:34:46;7.90;99.90
19878;DHT22;10101;52.204;9.910;2022-09-28T05:37:12;7.80;99.90
19878;DHT22;10101;52.204;9.910;2022-09-28T05:39:39;7.90;99.90
19878;DHT22;10101;52.204;9.910;2022-09-28T05:42:06;7.90;99.90
19878;DHT22;10101;52.204;9.910;2022-09-28T05:44:33;7.90;99.90
19878;DHT22;10101;52.204;9.910;2022-09-28T05:47:01;7.90;99.90
19878;DHT22;10101;52.204;9.910;2022-09-28T05:49:28;7.90;99.90
19878;DHT22;10101;52.204;9.910;2022-09-28T05:51:56;7.90;99.90
19878;DHT22;10101;52.204;9.910;2022-09-28T05:54:22;8.00;99.90
19878;DHT22;10101;52.204;9.910;2022-09-28T05:56:49;7.90;99.90
19878;DHT22;10101;52.204;9.910;2022-09-28T05:59:16;8.00;99.90
19878;DHT22;10101;52.204;9.910;2022-09-28T06:01:42;7.90;99.90
19878;DHT22;10101;52.204;9.910;2022-09-28T06:04:11;8.00;99.90
19878;DHT22;10101;52.204;9.910;2022-09-28T06:06:39;8.00;99.90
19878;DHT22;10101;52.204;9.910;2022-09-28T06:09:05;8.00;99.90
19878;DHT22;10101;52.204;9.910;2022-09-28T06:11:32;8.00;99.90
19878;DHT22;10101;52.204;9.910;2022-09-28T06:13:59;8.00;99.90
19878;DHT22;10101;52.204;9.910;2022-09-28T06:16:26;8.00;99.90
19878;DHT22;10101;52.204;9.910;2022-09-28T06:18:53;8.10;99.90
19878;DHT22;10101;52.204;9.910;2022-09-28T06:21:21;8.00;99.90
19878;DHT22;10101;52.204;9.910;2022-09-28T06:23:47;8.00;99.90
19878;DHT22;10101;52.204;9.910;2022-09-28T06:26:15;8.00;99.90
19878;DHT22;10101;52.204;9.910;2022-09-28T06:28:41;8.00;99.90
19878;DHT22;10101;52.204;9.910;2022-09-28T06:31:08;8.00;99.90
19878;DHT22;10101;52.204;9.910;2022-09-28T06:33:35;8.00;99.90
19878;DHT22;10101;52.204;9.910;2022-09-28T06:36:03;8.00;99.90
19878;DHT22;10101;52.204;9.910;2022-09-28T06:38:31;8.00;99.90
19878;DHT22;10101;52.204;9.910;2022-09-28T06:40:58;8.00;99.90
19878;DHT22;10101;52.204;9.910;2022-09-28T06:43:25;8.00;99.90
19878;DHT22;10101;52.204;9.910;2022-09-28T06:45:53;8.00;99.90
19878;DHT22;10101;52.204;9.910;2022-09-28T06:48:20;8.00;99.90
19878;DHT22;10101;52.204;9.910;2022-09-28T06:50:48;8.00;99.90
19878;DHT22;10101;52.204;9.910;2022-09-28T06:53:16;8.00;99.90
19878;DHT22;10101;52.204;9.910;2022-09-28T06:55:45;7.90;99.90
19878;DHT22;10101;52.204;9.910;2022-09-28T06:58:15;7.90;99.90
19878;DHT22;10101;52.204;9.910;2022-09-28T07:00:42;7.80;99.90
19878;DHT22;10101;52.204;9.910;2022-09-28T07:03:12;7.80;99.90
19878;DHT22;10101;52.204;9.910;2022-09-28T07:05:42;7.70;99.90
19878;DHT22;10101;52.204;9.910;2022-09-28T07:08:09;7.80;99.90
19878;DHT22;10101;52.204;9.910;2022-09-28T07:10:40;7.90;99.90
19878;DHT22;10101;52.204;9.910;2022-09-28T07:13:09;7.70;99.90
19878;DHT22;10101;52.204;9.910;2022-09-28T07:15:36;7.70;99.90
19878;DHT22;10101;52.204;9.910;2022-09-28T07:18:04;7.80;99.90
19878;DHT22;10101;52.204;9.910;2022-09-28T07:20:32;7.70;99.90
19878;DHT22;10101;52.204;9.910;2022-09-28T07:23:02;7.70;99.90
19878;DHT22;10101;52.204;9.910;2022-09-28T07:25:30;7.70;99.90
19878;DHT22;10101;52.204;9.910;2022-09-28T07:27:58;7.70;99.90
19878;DHT22;10101;52.204;9.910;2022-09-28T07:30:28;7.60;99.90
19878;DHT22;10101;52.204;9.910;2022-09-28T07:32:57;7.70;99.90
19878;DHT22;10101;52.204;9.910;2022-09-28T07:35:24;7.70;99.90
19878;DHT22;10101;52.204;9.910;2022-09-28T07:37:56;7.70;99.90
19878;DHT22;10101;52.204;9.910;2022-09-28T07:40:24;7.60;99.90
19878;DHT22;10101;52.204;9.910;2022-09-28T07:43:09;7.50;99.90
19878;DHT22;10101;52.204;9.910;2022-09-28T07:45:42;7.60;99.90
19878;DHT22;10101;52.204;9.910;2022-09-28T07:48:09;7.40;99.90
19878;DHT22;10101;52.204;9.910;2022-09-28T07:50:36;7.40;99.90
19878;DHT22;10101;52.204;9.910;2022-09-28T07:53:02;7.40;99.90
19878;DHT22;10101;52.204;9.910;2022-09-28T07:55:29;7.40;99.90
19878;DHT22;10101;52.204;9.910;2022-09-28T07:57:56;7.40;99.90
19878;DHT22;10101;52.204;9.910;2022-09-28T08:00:24;7.40;99.90
19878;DHT22;10101;52.204;9.910;2022-09-28T08:02:52;7.50;99.90
19878;DHT22;10101;52.204;9.910;2022-09-28T08:05:19;7.50;99.90
19878;DHT22;10101;52.204;9.910;2022-09-28T08:07:46;7.60;99.90
19878;DHT22;10101;52.204;9.910;2022-09-28T08:10:13;7.60;99.90
19878;DHT22;10101;52.204;9.910;2022-09-28T08:12:41;7.60;99.90
19878;DHT22;10101;52.204;9.910;2022-09-28T08:15:08;7.70;99.90
19878;DHT22;10101;52.204;9.910;2022-09-28T08:17:35;7.70;99.90
19878;DHT22;10101;52.204;9.910;2022-09-28T08:20:04;7.70;99.90
19878;DHT22;10101;52.204;9.910;2022-09-28T08:22:49;7.70;99.90
19878;DHT22;10101;52.204;9.910;2022-09-28T08:25:15;7.80;99.90
19878;DHT22;10101;52.204;9.910;2022-09-28T08:27:42;8.00;99.90
19878;DHT22;10101;52.204;9.910;2022-09-28T08:30:10;8.00;99.90
19878;DHT22;10101;52.204;9.910;2022-09-28T08:32:36;8.10;99.90
19878;DHT22;10101;52.204;9.910;2022-09-28T08:35:05;8.20;99.90
19878;DHT22;10101;52.204;9.910;2022-09-28T08:37:32;8.10;99.90
19878;DHT22;10101;52.204;9.910;2022-09-28T08:39:59;8.10;99.90
19878;DHT22;10101;52.204;9.910;2022-09-28T08:42:31;8.20;99.90
19878;DHT22;10101;52.204;9.910;2022-09-28T08:45:05;8.40;99.90
19878;DHT22;10101;52.204;9.910;2022-09-28T08:47:36;8.40;99.90
19878;DHT22;10101;52.204;9.910;2022-09-28T08:50:27;8.50;99.90
19878;DHT22;10101;52.204;9.910;2022-09-28T08:52:58;8.60;99.90
19878;DHT22;10101;52.204;9.910;2022-09-28T08:55:29;8.60;99.90
19878;DHT22;10101;52.204;9.910;2022-09-28T08:58:01;8.70;99.90
19878;DHT22;10101;52.204;9.910;2022-09-28T09:00:32;8.70;99.90
19878;DHT22;10101;52.204;9.910;2022-09-28T09:03:03;8.60;99.90
19878;DHT22;10101;52.204;9.910;2022-09-28T09:05:42;8.70;99.90
19878;DHT22;10101;52.204;9.910;2022-09-28T09:08:26;8.60;99.90
19878;DHT22;10101;52.204;9.910;2022-09-28T09:11:01;8.50;99.90
19878;DHT22;10101;52.204;9.910;2022-09-28T09:13:50;8.60;99.90
19878;DHT22;10101;52.204;9.910;2022-09-28T09:16:28;8.60;99.90
19878;DHT22;10101;52.204;9.910;2022-09-28T09:19:01;8.70;99.90
19878;DHT22;10101;52.204;9.910;2022-09-28T09:21:39;8.90;99.90
19878;DHT22;10101;52.204;9.910;2022-09-28T09:24:17;8.90;99.90
19878;DHT22;10101;52.204;9.910;2022-09-28T09:26:57;9.00;99.90
19878;DHT22;10101;52.204;9.910;2022-09-28T09:32:37;9.00;99.90
19878;DHT22;10101;52.204;9.910;2022-09-28T09:35:26;8.80;99.90
19878;DHT22;10101;52.204;9.910;2022-09-28T09:38:09;8.90;99.90
19878;DHT22;10101;52.204;9.910;2022-09-28T09:41:00;8.90;99.90
19878;DHT22;10101;52.204;9.910;2022-09-28T09:43:49;9.00;99.90
19878;DHT22;10101;52.204;9.910;2022-09-28T09:46:32;9.00;99.90
19878;DHT22;10101;52.204;9.910;2022-09-28T09:49:03;9.00;99.90
19878;DHT22;10101;52.204;9.910;2022-09-28T09:51:38;9.20;99.90
19878;DHT22;10101;52.204;9.910;2022-09-28T09:54:15;9.30;99.90
19878;DHT22;10101;52.204;9.910;2022-09-28T09:56:47;9.40;99.90
19878;DHT22;10101;52.204;9.910;2022-09-28T09:59:20;9.30;99.90
19878;DHT22;10101;52.204;9.910;2022-09-28T10:01:48;9.50;99.90
19878;DHT22;10101;52.204;9.910;2022-09-28T10:04:19;9.50;99.90
19878;DHT22;10101;52.204;9.910;2022-09-28T10:06:49;9.60;99.90
19878;DHT22;10101;52.204;9.910;2022-09-28T10:09:22;9.60;99.90
19878;DHT22;10101;52.204;9.910;2022-09-28T10:11:50;9.50;99.90
19878;DHT22;10101;52.204;9.910;2022-09-28T10:14:18;9.50;99.90
19878;DHT22;10101;52.204;9.910;2022-09-28T10:16:46;9.50;99.90
19878;DHT22;10101;52.204;9.910;2022-09-28T10:19:16;9.50;99.90
19878;DHT22;10101;52.204;9.910;2022-09-28T10:21:44;9.40;99.90
19878;DHT22;10101;52.204;9.910;2022-09-28T10:24:17;9.50;99.90
19878;DHT22;10101;52.204;9.910;2022-09-28T10:26:52;9.50;99.90
19878;DHT22;10101;52.204;9.910;2022-09-28T10:29:21;9.50;99.90
19878;DHT22;10101;52.204;9.910;2022-09-28T10:31:50;9.50;99.90
19878;DHT22;10101;52.204;9.910;2022-09-28T10:34:24;9.70;99.90
19878;DHT22;10101;52.204;9.910;2022-09-28T10:36:53;9.70;99.90
19878;DHT22;10101;52.204;9.910;2022-09-28T10:39:27;9.60;99.90
19878;DHT22;10101;52.204;9.910;2022-09-28T10:41:56;9.70;99.90
19878;DHT22;10101;52.204;9.910;2022-09-28T10:44:24;9.70;99.90
19878;DHT22;10101;52.204;9.910;2022-09-28T10:46:55;9.80;99.90
19878;DHT22;10101;52.204;9.910;2022-09-28T10:49:23;10.10;99.90
19878;DHT22;10101;52.204;9.910;2022-09-28T10:51:52;10.10;99.90
19878;DHT22;10101;52.204;9.910;2022-09-28T10:54:22;9.90;99.90
19878;DHT22;10101;52.204;9.910;2022-09-28T10:56:49;9.80;99.90
19878;DHT22;10101;52.204;9.910;2022-09-28T10:59:36;10.00;99.90
19878;DHT22;10101;52.204;9.910;2022-09-28T11:02:14;10.10;99.90
19878;DHT22;10101;52.204;9.910;2022-09-28T11:04:54;10.30;99.90
19878;DHT22;10101;52.204;9.910;2022-09-28T11:07:24;10.30;99.90
19878;DHT22;10101;52.204;9.910;2022-09-28T11:09:53;10.40;99.90
19878;DHT22;10101;52.204;9.910;2022-09-28T11:12:22;10.40;99.90
19878;DHT22;10101;52.204;9.910;2022-09-28T11:14:57;10.30;99.90
19878;DHT22;10101;52.204;9.910;2022-09-28T11:17:27;10.20;99.90
19878;DHT22;10101;52.204;9.910;2022-09-28T11:19:55;10.40;99.90
19878;DHT22;10101;52.204;9.910;2022-09-28T11:22:25;10.50;99.90
19878;DHT22;10101;52.204;9.910;2022-09-28T11:25:11;10.70;99.90
19878;DHT22;10101;52.204;9.910;2022-09-28T11:27:39;10.60;99.90
19878;DHT22;10101;52.204;9.910;2022-09-28T11:30:20;10.30;99.90
19878;DHT22;10101;52.204;9.910;2022-09-28T11:32:48;10.30;99.90
19878;DHT22;10101;52.204;9.910;2022-09-28T11:35:17;10.40;99.90
19878;DHT22;10101;52.204;9.910;2022-09-28T11:37:54;10.40;99.90
19878;DHT22;10101;52.204;9.910;2022-09-28T11:40:30;10.40;99.90
19878;DHT22;10101;52.204;9.910;2022-09-28T11:43:09;10.60;99.90
19878;DHT22;10101;52.204;9.910;2022-09-28T11:45:47;10.80;99.90
19878;DHT22;10101;52.204;9.910;2022-09-28T11:48:20;10.70;99.90
19878;DHT22;10101;52.204;9.910;2022-09-28T11:50:50;10.70;99.90
19878;DHT22;10101;52.204;9.910;2022-09-28T11:53:22;10.80;99.90
19878;DHT22;10101;52.204;9.910;2022-09-28T11:55:54;10.80;99.90
19878;DHT22;10101;52.204;9.910;2022-09-28T11:58:26;10.80;99.90
19878;DHT22;10101;52.204;9.910;2022-09-28T12:01:01;11.00;99.90
19878;DHT22;10101;52.204;9.910;2022-09-28T12:03:36;11.20;99.90
19878;DHT22;10101;52.204;9.910;2022-09-28T12:06:10;11.40;99.90
19878;DHT22;10101;52.204;9.910;2022-09-28T12:08:40;11.20;99.90
19878;DHT22;10101;52.204;9.910;2022-09-28T12:11:13;10.80;99.90
19878;DHT22;10101;52.204;9.910;2022-09-28T12:13:43;10.90;99.90
19878;DHT22;10101;52.204;9.910;2022-09-28T12:16:16;11.10;99.90
19878;DHT22;10101;52.204;9.910;2022-09-28T12:18:49;10.80;99.90
19878;DHT22;10101;52.204;9.910;2022-09-28T12:21:27;10.50;99.90
19878;DHT22;10101;52.204;9.910;2022-09-28T12:24:01;10.60;99.90
19878;DHT22;10101;52.204;9.910;2022-09-28T12:26:33;10.70;99.90
19878;DHT22;10101;52.204;9.910;2022-09-28T12:29:09;11.00;99.90
19878;DHT22;10101;52.204;9.910;2022-09-28T12:31:44;11.00;99.90
19878;DHT22;10101;52.204;9.910;2022-09-28T12:34:13;10.70;99.90
19878;DHT22;10101;52.204;9.910;2022-09-28T12:36:46;10.60;99.90
19878;DHT22;10101;52.204;9.910;2022-09-28T12:39:45;10.70;99.90
19878;DHT22;10101;52.204;9.910;2022-09-28T12:42:25;10.70;99.90
19878;DHT22;10101;52.204;9.910;2022-09-28T12:45:10;10.70;99.90
19878;DHT22;10101;52.204;9.910;2022-09-28T12:48:04;10.80;99.90
19878;DHT22;10101;52.204;9.910;2022-09-28T12:50:37;10.80;99.90
19878;DHT22;10101;52.204;9.910;2022-09-28T12:53:20;10.90;99.90
19878;DHT22;10101;52.204;9.910;2022-09-28T12:55:53;11.00;99.90
19878;DHT22;10101;52.204;9.910;2022-09-28T12:58:35;10.90;99.90
19878;DHT22;10101;52.204;9.910;2022-09-28T13:01:16;10.60;99.90
19878;DHT22;10101;52.204;9.910;2022-09-28T13:04:08;10.40;99.90
19878;DHT22;10101;52.204;9.910;2022-09-28T13:06:54;10.40;99.90
19878;DHT22;10101;52.204;9.910;2022-09-28T13:09:22;10.40;99.90
19878;DHT22;10101;52.204;9.910;2022-09-28T13:12:09;10.60;99.90
19878;DHT22;10101;52.204;9.910;2022-09-28T13:17:54;10.50;99.90
19878;DHT22;10101;52.204;9.910;2022-09-28T13:20:45;10.70;99.90
19878;DHT22;10101;52.204;9.910;2022-09-28T13:23:19;10.60;99.90
19878;DHT22;10101;52.204;9.910;2022-09-28T13:25:54;10.70;99.90
19878;DHT22;10101;52.204;9.910;2022-09-28T13:28:23;10.80;99.90
19878;DHT22;10101;52.204;9.910;2022-09-28T13:30:51;10.90;99.90
19878;DHT22;10101;52.204;9.910;2022-09-28T13:33:24;10.90;99.90
19878;DHT22;10101;52.204;9.910;2022-09-28T13:35:55;10.90;99.90
19878;DHT22;10101;52.204;9.910;2022-09-28T13:38:38;10.80;99.90
19878;DHT22;10101;52.204;9.910;2022-09-28T13:41:11;10.80;99.90
19878;DHT22;10101;52.204;9.910;2022-09-28T13:43:53;11.00;99.90
19878;DHT22;10101;52.204;9.910;2022-09-28T13:46:26;11.10;99.90
19878;DHT22;10101;52.204;9.910;2022-09-28T13:49:05;11.20;99.90
19878;DHT22;10101;52.204;9.910;2022-09-28T13:51:47;11.40;99.90
19878;DHT22;10101;52.204;9.910;2022-09-28T13:54:33;11.60;99.90
19878;DHT22;10101;52.204;9.910;2022-09-28T13:57:12;11.70;99.90
19878;DHT22;10101;52.204;9.910;2022-09-28T13:59:51;11.70;99.90
19878;DHT22;10101;52.204;9.910;2022-09-28T14:02:26;11.70;99.90
19878;DHT22;10101;52.204;9.910;2022-09-28T14:04:57;11.60;99.90
19878;DHT22;10101;52.204;9.910;2022-09-28T14:07:36;11.40;99.90
19878;DHT22;10101;52.204;9.910;2022-09-28T14:10:17;11.40;99.90
19878;DHT22;10101;52.204;9.910;2022-09-28T14:12:47;11.20;99.90
19878;DHT22;10101;52.204;9.910;2022-09-28T14:15:41;11.20;99.90
19878;DHT22;10101;52.204;9.910;2022-09-28T14:18:26;10.90;99.90
19878;DHT22;10101;52.204;9.910;2022-09-28T14:21:12;10.80;99.90
19878;DHT22;10101;52.204;9.910;2022-09-28T14:26:52;10.90;99.90
19878;DHT22;10101;52.204;9.910;2022-09-28T14:29:25;11.10;99.90
19878;DHT22;10101;52.204;9.910;2022-09-28T14:31:57;13.80;99.90
19878;DHT22;10101;52.204;9.910;2022-09-28T14:34:30;12.30;99.90
19878;DHT22;10101;52.204;9.910;2022-09-28T14:37:00;13.60;99.90
19878;DHT22;10101;52.204;9.910;2022-09-28T14:39:46;13.40;99.90
19878;DHT22;10101;52.204;9.910;2022-09-28T14:42:31;14.70;99.90
19878;DHT22;10101;52.204;9.910;2022-09-28T14:45:17;13.60;99.90
19878;DHT22;10101;52.204;9.910;2022-09-28T14:48:04;11.90;1.00
19878;DHT22;10101;52.204;9.910;2022-09-28T14:50:35;11.30;99.90
19878;DHT22;10101;52.204;9.910;2022-09-28T14:53:04;10.90;99.90
19878;DHT22;10101;52.204;9.910;2022-09-28T14:55:40;10.80;1.00
19878;DHT22;10101;52.204;9.910;2022-09-28T14:58:16;10.70;89.00
19878;DHT22;10101;52.204;9.910;2022-09-28T15:00:45;10.80;1.00
19878;DHT22;10101;52.204;9.910;2022-09-28T15:03:13;14.20;99.90
19878;DHT22;10101;52.204;9.910;2022-09-28T15:05:42;12.80;1.00
19878;DHT22;10101;52.204;9.910;2022-09-28T15:08:11;13.40;50.70
19878;DHT22;10101;52.204;9.910;2022-09-28T15:10:44;14.20;1.00
19878;DHT22;10101;52.204;9.910;2022-09-28T15:13:20;16.40;1.00
19878;DHT22;10101;52.204;9.910;2022-09-28T15:15:50;17.50;1.00
19878;DHT22;10101;52.204;9.910;2022-09-28T15:18:36;19.20;36.10
19878;DHT22;10101;52.204;9.910;2022-09-28T15:21:09;18.20;99.90
19878;DHT22;10101;52.204;9.910;2022-09-28T15:23:37;18.30;1.00
19878;DHT22;10101;52.204;9.910;2022-09-28T15:26:19;17.80;99.90
19878;DHT22;10101;52.204;9.910;2022-09-28T15:28:46;15.70;1.00
19878;DHT22;10101;52.204;9.910;2022-09-28T15:31:17;16.00;99.90
19878;DHT22;10101;52.204;9.910;2022-09-28T15:33:44;15.40;99.90
19878;DHT22;10101;52.204;9.910;2022-09-28T15:36:30;13.90;1.00
19878;DHT22;10101;52.204;9.910;2022-09-28T15:38:59;12.50;71.20
19878;DHT22;10101;52.204;9.910;2022-09-28T15:41:28;11.70;1.00
19878;DHT22;10101;52.204;9.910;2022-09-28T15:44:17;11.60;1.00
19878;DHT22;10101;52.204;9.910;2022-09-28T15:46:47;11.50;1.00
19878;DHT22;10101;52.204;9.910;2022-09-28T15:49:22;11.30;86.30
19878;DHT22;10101;52.204;9.910;2022-09-28T15:51:52;11.30;99.90
19878;DHT22;10101;52.204;9.910;2022-09-28T15:54:22;11.30;1.00
19878;DHT22;10101;52.204;9.910;2022-09-28T15:56:53;11.00;13.70
19878;DHT22;10101;52.204;9.910;2022-09-28T15:59:26;11.10;1.00
19878;DHT22;10101;52.204;9.910;2022-09-28T16:02:10;11.20;1.00
19878;DHT22;10101;52.204;9.910;2022-09-28T16:04:42;11.20;99.90
19878;DHT22;10101;52.204;9.910;2022-09-28T16:07:33;11.10;1.00
19878;DHT22;10101;52.204;9.910;2022-09-28T16:10:27;11.00;1.00
19878;DHT22;10101;52.204;9.910;2022-09-28T16:13:15;10.80;1.00
19878;DHT22;10101;52.204;9.910;2022-09-28T16:15:43;10.90;99.90
19878;DHT22;10101;52.204;9.910;2022-09-28T16:18:18;10.70;1.00
19878;DHT22;10101;52.204;9.910;2022-09-28T16:20:49;10.70;1.00
19878;DHT22;10101;52.204;9.910;2022-09-28T16:23:20;10.60;97.80